Aberdeen, Arkansas
Current Conditions -  °F | °C
As of 3:35 AM on Tuesday 21 Oct 2014 (Local Time) from KSGT Reporting Station
Clear Clear  
Wind Chill: 54°   Ceiling: Unl
Heat Index: 54°   Visibility: 5mi
Dew Point: 52°   Wind: 5mph
Humidity: 94%   Direction: 270°W
Pressure: 30.04"   Gusts: NA
Location:  34.6163°N, 91.3754°W
Report Text: KSGT 210835Z AUTO 27004KT 5SM CLR 12/11 A3004 RMK AO1
Loading
Personal Weather Stations






























Interactive Weather Map
Tropical Storm Tracking
New forecast layout! Learn more

10-Day Weather Forecast

Advertisements
Track Severe Weather on mobile